sensor_id;sensor_type;location;lat;lon;timestamp;P1;durP1;ratioP1;P2;durP2;ratioP2
2858;SDS011;1437;53.250;10.406;2023-03-04T00:00:33;1.25;;;1.23;;
2858;SDS011;1437;53.250;10.406;2023-03-04T00:03:05;0.82;;;0.82;;
2858;SDS011;1437;53.250;10.406;2023-03-04T00:05:35;1.20;;;1.20;;
2858;SDS011;1437;53.250;10.406;2023-03-04T00:08:06;0.98;;;0.98;;
2858;SDS011;1437;53.250;10.406;2023-03-04T00:10:34;1.52;;;1.42;;
2858;SDS011;1437;53.250;10.406;2023-03-04T00:13:02;0.95;;;0.95;;
2858;SDS011;1437;53.250;10.406;2023-03-04T00:15:30;1.23;;;1.23;;
2858;SDS011;1437;53.250;10.406;2023-03-04T00:18:05;0.50;;;0.50;;
2858;SDS011;1437;53.250;10.406;2023-03-04T00:20:33;1.00;;;1.00;;
2858;SDS011;1437;53.250;10.406;2023-03-04T00:23:00;0.75;;;0.75;;
2858;SDS011;1437;53.250;10.406;2023-03-04T00:25:28;1.15;;;1.15;;
2858;SDS011;1437;53.250;10.406;2023-03-04T00:28:00;0.40;;;0.40;;
2858;SDS011;1437;53.250;10.406;2023-03-04T00:30:30;1.05;;;1.05;;
2858;SDS011;1437;53.250;10.406;2023-03-04T00:32:58;0.60;;;0.60;;
2858;SDS011;1437;53.250;10.406;2023-03-04T00:35:30;1.17;;;1.17;;
2858;SDS011;1437;53.250;10.406;2023-03-04T00:37:58;0.98;;;0.98;;
2858;SDS011;1437;53.250;10.406;2023-03-04T00:40:25;0.52;;;0.52;;
2858;SDS011;1437;53.250;10.406;2023-03-04T00:42:55;0.60;;;0.60;;
2858;SDS011;1437;53.250;10.406;2023-03-04T00:45:26;0.88;;;0.88;;
2858;SDS011;1437;53.250;10.406;2023-03-04T00:47:53;0.70;;;0.70;;
2858;SDS011;1437;53.250;10.406;2023-03-04T00:50:21;0.55;;;0.55;;
2858;SDS011;1437;53.250;10.406;2023-03-04T00:52:50;0.80;;;0.80;;
2858;SDS011;1437;53.250;10.406;2023-03-04T00:55:19;0.60;;;0.60;;
2858;SDS011;1437;53.250;10.406;2023-03-04T00:57:47;1.45;;;1.45;;
2858;SDS011;1437;53.250;10.406;2023-03-04T01:00:15;1.05;;;1.05;;
2858;SDS011;1437;53.250;10.406;2023-03-04T01:02:44;2.58;;;2.47;;
2858;SDS011;1437;53.250;10.406;2023-03-04T01:05:13;0.82;;;0.82;;
2858;SDS011;1437;53.250;10.406;2023-03-04T01:07:41;3.78;;;3.58;;
2858;SDS011;1437;53.250;10.406;2023-03-04T01:10:11;0.73;;;0.73;;
2858;SDS011;1437;53.250;10.406;2023-03-04T01:12:39;1.15;;;1.15;;
2858;SDS011;1437;53.250;10.406;2023-03-04T01:15:07;2.30;;;2.20;;
2858;SDS011;1437;53.250;10.406;2023-03-04T01:17:38;2.08;;;2.00;;
2858;SDS011;1437;53.250;10.406;2023-03-04T01:20:06;1.02;;;1.02;;
2858;SDS011;1437;53.250;10.406;2023-03-04T01:22:34;1.00;;;1.00;;
2858;SDS011;1437;53.250;10.406;2023-03-04T01:25:02;0.82;;;0.82;;
2858;SDS011;1437;53.250;10.406;2023-03-04T01:27:31;0.70;;;0.70;;
2858;SDS011;1437;53.250;10.406;2023-03-04T01:29:59;1.00;;;1.00;;
2858;SDS011;1437;53.250;10.406;2023-03-04T01:32:29;0.90;;;0.90;;
2858;SDS011;1437;53.250;10.406;2023-03-04T01:34:56;0.82;;;0.82;;
2858;SDS011;1437;53.250;10.406;2023-03-04T01:37:24;1.25;;;1.25;;
2858;SDS011;1437;53.250;10.406;2023-03-04T01:39:52;0.40;;;0.40;;
2858;SDS011;1437;53.250;10.406;2023-03-04T01:42:20;0.73;;;0.73;;
2858;SDS011;1437;53.250;10.406;2023-03-04T01:44:49;0.90;;;0.90;;
2858;SDS011;1437;53.250;10.406;2023-03-04T01:47:17;0.80;;;0.80;;
2858;SDS011;1437;53.250;10.406;2023-03-04T01:49:46;0.88;;;0.88;;
2858;SDS011;1437;53.250;10.406;2023-03-04T01:52:16;0.50;;;0.50;;
2858;SDS011;1437;53.250;10.406;2023-03-04T01:54:43;0.40;;;0.40;;
2858;SDS011;1437;53.250;10.406;2023-03-04T01:57:15;0.80;;;0.80;;
2858;SDS011;1437;53.250;10.406;2023-03-04T01:59:43;0.60;;;0.60;;
2858;SDS011;1437;53.250;10.406;2023-03-04T02:02:12;0.70;;;0.70;;
2858;SDS011;1437;53.250;10.406;2023-03-04T02:04:40;0.60;;;0.60;;
2858;SDS011;1437;53.250;10.406;2023-03-04T02:07:09;0.60;;;0.60;;
2858;SDS011;1437;53.250;10.406;2023-03-04T02:09:36;0.82;;;0.82;;
2858;SDS011;1437;53.250;10.406;2023-03-04T02:12:04;1.23;;;1.23;;
2858;SDS011;1437;53.250;10.406;2023-03-04T02:14:35;0.73;;;0.73;;
2858;SDS011;1437;53.250;10.406;2023-03-04T02:17:04;0.40;;;0.40;;
2858;SDS011;1437;53.250;10.406;2023-03-04T02:19:37;1.05;;;1.05;;
2858;SDS011;1437;53.250;10.406;2023-03-04T02:22:08;0.55;;;0.55;;
2858;SDS011;1437;53.250;10.406;2023-03-04T02:24:40;0.70;;;0.70;;
2858;SDS011;1437;53.250;10.406;2023-03-04T02:27:11;0.50;;;0.50;;
2858;SDS011;1437;53.250;10.406;2023-03-04T02:29:38;1.25;;;1.25;;
2858;SDS011;1437;53.250;10.406;2023-03-04T02:32:08;1.02;;;1.02;;
2858;SDS011;1437;53.250;10.406;2023-03-04T02:34:37;1.15;;;1.15;;
2858;SDS011;1437;53.250;10.406;2023-03-04T02:37:14;0.50;;;0.50;;
2858;SDS011;1437;53.250;10.406;2023-03-04T02:39:42;0.55;;;0.55;;
2858;SDS011;1437;53.250;10.406;2023-03-04T02:42:11;0.95;;;0.95;;
2858;SDS011;1437;53.250;10.406;2023-03-04T02:44:39;1.15;;;1.15;;
2858;SDS011;1437;53.250;10.406;2023-03-04T02:47:08;1.95;;;1.85;;
2858;SDS011;1437;53.250;10.406;2023-03-04T02:49:45;0.82;;;0.82;;
2858;SDS011;1437;53.250;10.406;2023-03-04T02:52:17;0.47;;;0.47;;
2858;SDS011;1437;53.250;10.406;2023-03-04T02:54:46;0.73;;;0.73;;
2858;SDS011;1437;53.250;10.406;2023-03-04T02:57:15;0.73;;;0.73;;
2858;SDS011;1437;53.250;10.406;2023-03-04T02:59:43;0.43;;;0.43;;
2858;SDS011;1437;53.250;10.406;2023-03-04T03:02:11;0.50;;;0.50;;
2858;SDS011;1437;53.250;10.406;2023-03-04T03:04:38;1.08;;;1.08;;
2858;SDS011;1437;53.250;10.406;2023-03-04T03:07:07;0.70;;;0.70;;
2858;SDS011;1437;53.250;10.406;2023-03-04T03:09:35;0.70;;;0.70;;
2858;SDS011;1437;53.250;10.406;2023-03-04T03:12:02;0.55;;;0.55;;
2858;SDS011;1437;53.250;10.406;2023-03-04T03:14:32;0.75;;;0.75;;
2858;SDS011;1437;53.250;10.406;2023-03-04T03:16:59;0.98;;;0.98;;
2858;SDS011;1437;53.250;10.406;2023-03-04T03:19:27;0.93;;;0.93;;
2858;SDS011;1437;53.250;10.406;2023-03-04T03:21:55;0.88;;;0.88;;
2858;SDS011;1437;53.250;10.406;2023-03-04T03:24:24;0.93;;;0.93;;
2858;SDS011;1437;53.250;10.406;2023-03-04T03:26:55;0.70;;;0.70;;
2858;SDS011;1437;53.250;10.406;2023-03-04T03:29:24;0.90;;;0.90;;
2858;SDS011;1437;53.250;10.406;2023-03-04T03:31:54;0.60;;;0.60;;
2858;SDS011;1437;53.250;10.406;2023-03-04T03:34:22;0.80;;;0.80;;
2858;SDS011;1437;53.250;10.406;2023-03-04T03:36:52;1.15;;;1.15;;
2858;SDS011;1437;53.250;10.406;2023-03-04T03:39:21;0.68;;;0.68;;
2858;SDS011;1437;53.250;10.406;2023-03-04T03:41:48;1.63;;;1.52;;
2858;SDS011;1437;53.250;10.406;2023-03-04T03:44:22;0.50;;;0.50;;
2858;SDS011;1437;53.250;10.406;2023-03-04T03:46:54;0.63;;;0.63;;
2858;SDS011;1437;53.250;10.406;2023-03-04T03:49:22;0.50;;;0.50;;
2858;SDS011;1437;53.250;10.406;2023-03-04T03:51:50;0.68;;;0.68;;
2858;SDS011;1437;53.250;10.406;2023-03-04T03:54:23;1.42;;;1.42;;
2858;SDS011;1437;53.250;10.406;2023-03-04T03:56:51;0.70;;;0.70;;
2858;SDS011;1437;53.250;10.406;2023-03-04T03:59:19;0.50;;;0.50;;
2858;SDS011;1437;53.250;10.406;2023-03-04T04:01:48;1.05;;;1.05;;
2858;SDS011;1437;53.250;10.406;2023-03-04T04:04:20;0.52;;;0.52;;
2858;SDS011;1437;53.250;10.406;2023-03-04T04:06:53;0.60;;;0.60;;
2858;SDS011;1437;53.250;10.406;2023-03-04T04:09:24;0.70;;;0.70;;
2858;SDS011;1437;53.250;10.406;2023-03-04T04:11:52;0.90;;;0.90;;
2858;SDS011;1437;53.250;10.406;2023-03-04T04:14:19;1.10;;;1.10;;
2858;SDS011;1437;53.250;10.406;2023-03-04T04:16:47;1.35;;;1.35;;
2858;SDS011;1437;53.250;10.406;2023-03-04T04:19:16;0.93;;;0.93;;
2858;SDS011;1437;53.250;10.406;2023-03-04T04:21:46;0.40;;;0.40;;
2858;SDS011;1437;53.250;10.406;2023-03-04T04:24:14;0.60;;;0.60;;
2858;SDS011;1437;53.250;10.406;2023-03-04T04:26:41;0.60;;;0.60;;
2858;SDS011;1437;53.250;10.406;2023-03-04T04:29:12;0.70;;;0.70;;
2858;SDS011;1437;53.250;10.406;2023-03-04T04:31:40;0.90;;;0.90;;
2858;SDS011;1437;53.250;10.406;2023-03-04T04:34:08;1.00;;;1.00;;
2858;SDS011;1437;53.250;10.406;2023-03-04T04:36:35;0.63;;;0.63;;
2858;SDS011;1437;53.250;10.406;2023-03-04T04:39:05;0.60;;;0.60;;
2858;SDS011;1437;53.250;10.406;2023-03-04T04:41:34;1.02;;;1.02;;
2858;SDS011;1437;53.250;10.406;2023-03-04T04:44:02;0.60;;;0.60;;
2858;SDS011;1437;53.250;10.406;2023-03-04T04:46:30;0.95;;;0.95;;
2858;SDS011;1437;53.250;10.406;2023-03-04T04:49:01;0.57;;;0.57;;
2858;SDS011;1437;53.250;10.406;2023-03-04T04:51:30;0.82;;;0.82;;
2858;SDS011;1437;53.250;10.406;2023-03-04T04:54:02;1.00;;;1.00;;
2858;SDS011;1437;53.250;10.406;2023-03-04T04:56:32;1.15;;;1.15;;
2858;SDS011;1437;53.250;10.406;2023-03-04T04:59:05;1.20;;;1.20;;
2858;SDS011;1437;53.250;10.406;2023-03-04T05:01:35;1.70;;;1.70;;
2858;SDS011;1437;53.250;10.406;2023-03-04T05:04:03;0.85;;;0.85;;
2858;SDS011;1437;53.250;10.406;2023-03-04T05:06:31;0.75;;;0.75;;
2858;SDS011;1437;53.250;10.406;2023-03-04T05:08:59;0.75;;;0.75;;
2858;SDS011;1437;53.250;10.406;2023-03-04T05:11:31;0.43;;;0.43;;
2858;SDS011;1437;53.250;10.406;2023-03-04T05:13:59;1.90;;;1.80;;
2858;SDS011;1437;53.250;10.406;2023-03-04T05:16:30;1.15;;;1.15;;
2858;SDS011;1437;53.250;10.406;2023-03-04T05:18:58;0.40;;;0.40;;
2858;SDS011;1437;53.250;10.406;2023-03-04T05:21:26;0.40;;;0.40;;
2858;SDS011;1437;53.250;10.406;2023-03-04T05:23:54;0.40;;;0.40;;
2858;SDS011;1437;53.250;10.406;2023-03-04T05:26:22;0.88;;;0.88;;
2858;SDS011;1437;53.250;10.406;2023-03-04T05:28:52;0.50;;;0.50;;
2858;SDS011;1437;53.250;10.406;2023-03-04T05:31:20;0.63;;;0.63;;
2858;SDS011;1437;53.250;10.406;2023-03-04T05:33:48;0.98;;;0.98;;
2858;SDS011;1437;53.250;10.406;2023-03-04T05:36:16;0.70;;;0.70;;
2858;SDS011;1437;53.250;10.406;2023-03-04T05:38:44;1.02;;;1.02;;
2858;SDS011;1437;53.250;10.406;2023-03-04T05:41:14;0.50;;;0.50;;
2858;SDS011;1437;53.250;10.406;2023-03-04T05:43:47;0.47;;;0.47;;
2858;SDS011;1437;53.250;10.406;2023-03-04T05:46:18;0.70;;;0.70;;
2858;SDS011;1437;53.250;10.406;2023-03-04T05:48:50;0.60;;;0.60;;
2858;SDS011;1437;53.250;10.406;2023-03-04T05:51:17;0.60;;;0.60;;
2858;SDS011;1437;53.250;10.406;2023-03-04T05:53:48;0.50;;;0.50;;
2858;SDS011;1437;53.250;10.406;2023-03-04T05:56:17;1.05;;;1.05;;
2858;SDS011;1437;53.250;10.406;2023-03-04T05:58:45;0.60;;;0.60;;
2858;SDS011;1437;53.250;10.406;2023-03-04T06:01:13;0.50;;;0.50;;
2858;SDS011;1437;53.250;10.406;2023-03-04T06:03:52;1.40;;;1.40;;
2858;SDS011;1437;53.250;10.406;2023-03-04T06:06:20;0.60;;;0.60;;
2858;SDS011;1437;53.250;10.406;2023-03-04T06:08:48;0.80;;;0.80;;
2858;SDS011;1437;53.250;10.406;2023-03-04T06:11:19;1.02;;;1.02;;
2858;SDS011;1437;53.250;10.406;2023-03-04T06:13:46;0.70;;;0.70;;
2858;SDS011;1437;53.250;10.406;2023-03-04T06:16:15;1.13;;;1.13;;
2858;SDS011;1437;53.250;10.406;2023-03-04T06:18:45;0.73;;;0.73;;
2858;SDS011;1437;53.250;10.406;2023-03-04T06:21:14;1.00;;;1.00;;
2858;SDS011;1437;53.250;10.406;2023-03-04T06:23:48;0.50;;;0.50;;
2858;SDS011;1437;53.250;10.406;2023-03-04T06:26:16;0.80;;;0.80;;
2858;SDS011;1437;53.250;10.406;2023-03-04T06:28:44;0.70;;;0.70;;
2858;SDS011;1437;53.250;10.406;2023-03-04T06:31:11;1.50;;;1.45;;
2858;SDS011;1437;53.250;10.406;2023-03-04T06:33:39;1.00;;;1.00;;
2858;SDS011;1437;53.250;10.406;2023-03-04T06:36:10;0.60;;;0.60;;
2858;SDS011;1437;53.250;10.406;2023-03-04T06:38:41;1.00;;;1.00;;
2858;SDS011;1437;53.250;10.406;2023-03-04T06:41:11;1.15;;;1.15;;
2858;SDS011;1437;53.250;10.406;2023-03-04T06:43:41;1.15;;;1.15;;
2858;SDS011;1437;53.250;10.406;2023-03-04T06:46:09;1.05;;;1.05;;
2858;SDS011;1437;53.250;10.406;2023-03-04T06:48:40;0.98;;;0.98;;
2858;SDS011;1437;53.250;10.406;2023-03-04T06:51:13;1.40;;;1.40;;
2858;SDS011;1437;53.250;10.406;2023-03-04T06:53:49;0.98;;;0.98;;
2858;SDS011;1437;53.250;10.406;2023-03-04T06:56:44;0.75;;;0.75;;
2858;SDS011;1437;53.250;10.406;2023-03-04T06:59:16;1.70;;;1.67;;
2858;SDS011;1437;53.250;10.406;2023-03-04T07:01:57;1.17;;;1.17;;
2858;SDS011;1437;53.250;10.406;2023-03-04T07:04:25;0.95;;;0.95;;
2858;SDS011;1437;53.250;10.406;2023-03-04T07:06:53;1.08;;;1.08;;
2858;SDS011;1437;53.250;10.406;2023-03-04T07:09:22;1.17;;;1.17;;
2858;SDS011;1437;53.250;10.406;2023-03-04T07:11:54;0.65;;;0.65;;
2858;SDS011;1437;53.250;10.406;2023-03-04T07:14:32;1.67;;;1.67;;
2858;SDS011;1437;53.250;10.406;2023-03-04T07:16:59;0.95;;;0.95;;
2858;SDS011;1437;53.250;10.406;2023-03-04T07:19:27;0.88;;;0.88;;
2858;SDS011;1437;53.250;10.406;2023-03-04T07:21:55;1.30;;;1.30;;
2858;SDS011;1437;53.250;10.406;2023-03-04T07:24:24;0.95;;;0.95;;
2858;SDS011;1437;53.250;10.406;2023-03-04T07:26:53;1.05;;;1.05;;
2858;SDS011;1437;53.250;10.406;2023-03-04T07:29:22;1.10;;;1.10;;
2858;SDS011;1437;53.250;10.406;2023-03-04T07:31:52;0.88;;;0.88;;
2858;SDS011;1437;53.250;10.406;2023-03-04T07:34:24;1.83;;;1.80;;
2858;SDS011;1437;53.250;10.406;2023-03-04T07:36:55;1.17;;;1.17;;
2858;SDS011;1437;53.250;10.406;2023-03-04T07:39:32;9.05;;;3.10;;
2858;SDS011;1437;53.250;10.406;2023-03-04T07:42:00;11.93;;;3.70;;
2858;SDS011;1437;53.250;10.406;2023-03-04T07:44:29;12.00;;;2.57;;
2858;SDS011;1437;53.250;10.406;2023-03-04T07:47:01;12.03;;;4.47;;
2858;SDS011;1437;53.250;10.406;2023-03-04T07:49:29;11.10;;;2.60;;
2858;SDS011;1437;53.250;10.406;2023-03-04T07:51:57;9.80;;;3.70;;
2858;SDS011;1437;53.250;10.406;2023-03-04T07:54:24;6.17;;;2.40;;
2858;SDS011;1437;53.250;10.406;2023-03-04T07:56:54;6.17;;;2.60;;
2858;SDS011;1437;53.250;10.406;2023-03-04T07:59:24;8.33;;;2.00;;
2858;SDS011;1437;53.250;10.406;2023-03-04T08:01:52;4.20;;;1.63;;
2858;SDS011;1437;53.250;10.406;2023-03-04T08:04:19;5.07;;;1.60;;
2858;SDS011;1437;53.250;10.406;2023-03-04T08:06:47;3.87;;;1.60;;
2858;SDS011;1437;53.250;10.406;2023-03-04T08:09:15;6.23;;;1.70;;
2858;SDS011;1437;53.250;10.406;2023-03-04T08:11:57;9.23;;;3.00;;
2858;SDS011;1437;53.250;10.406;2023-03-04T08:14:27;7.17;;;2.63;;
2858;SDS011;1437;53.250;10.406;2023-03-04T08:16:55;7.70;;;2.50;;
2858;SDS011;1437;53.250;10.406;2023-03-04T08:19:23;4.80;;;1.97;;
2858;SDS011;1437;53.250;10.406;2023-03-04T08:21:50;11.30;;;1.93;;
2858;SDS011;1437;53.250;10.406;2023-03-04T08:24:18;7.87;;;1.90;;
2858;SDS011;1437;53.250;10.406;2023-03-04T08:26:47;5.20;;;2.67;;
2858;SDS011;1437;53.250;10.406;2023-03-04T08:29:18;7.80;;;2.57;;
2858;SDS011;1437;53.250;10.406;2023-03-04T08:31:46;9.63;;;1.87;;
2858;SDS011;1437;53.250;10.406;2023-03-04T08:34:15;5.50;;;2.00;;
2858;SDS011;1437;53.250;10.406;2023-03-04T08:36:50;8.67;;;2.83;;
2858;SDS011;1437;53.250;10.406;2023-03-04T08:39:18;14.50;;;2.97;;
2858;SDS011;1437;53.250;10.406;2023-03-04T08:41:46;8.10;;;2.67;;
2858;SDS011;1437;53.250;10.406;2023-03-04T08:44:18;7.50;;;2.40;;
2858;SDS011;1437;53.250;10.406;2023-03-04T08:46:56;10.63;;;2.90;;
2858;SDS011;1437;53.250;10.406;2023-03-04T08:49:44;18.40;;;3.50;;
2858;SDS011;1437;53.250;10.406;2023-03-04T08:52:34;11.73;;;3.20;;
2858;SDS011;1437;53.250;10.406;2023-03-04T08:55:13;13.73;;;2.73;;
2858;SDS011;1437;53.250;10.406;2023-03-04T08:57:45;13.17;;;3.10;;
2858;SDS011;1437;53.250;10.406;2023-03-04T09:00:33;19.73;;;3.70;;
2858;SDS011;1437;53.250;10.406;2023-03-04T09:03:02;7.07;;;2.70;;
2858;SDS011;1437;53.250;10.406;2023-03-04T09:05:38;12.50;;;2.63;;
2858;SDS011;1437;53.250;10.406;2023-03-04T09:08:07;10.37;;;2.40;;
2858;SDS011;1437;53.250;10.406;2023-03-04T09:10:35;10.10;;;2.50;;
2858;SDS011;1437;53.250;10.406;2023-03-04T09:13:06;13.40;;;2.87;;
2858;SDS011;1437;53.250;10.406;2023-03-04T09:15:37;16.40;;;2.77;;
2858;SDS011;1437;53.250;10.406;2023-03-04T09:18:15;14.00;;;2.47;;
2858;SDS011;1437;53.250;10.406;2023-03-04T09:20:44;12.30;;;2.90;;
2858;SDS011;1437;53.250;10.406;2023-03-04T09:23:12;13.90;;;2.37;;
2858;SDS011;1437;53.250;10.406;2023-03-04T09:25:41;19.77;;;5.17;;
2858;SDS011;1437;53.250;10.406;2023-03-04T09:28:14;16.03;;;3.23;;
2858;SDS011;1437;53.250;10.406;2023-03-04T09:30:48;5.70;;;1.83;;
2858;SDS011;1437;53.250;10.406;2023-03-04T09:33:19;8.33;;;2.63;;
2858;SDS011;1437;53.250;10.406;2023-03-04T09:35:51;6.13;;;1.43;;
2858;SDS011;1437;53.250;10.406;2023-03-04T09:38:20;15.40;;;2.80;;
2858;SDS011;1437;53.250;10.406;2023-03-04T09:40:49;10.00;;;3.43;;
2858;SDS011;1437;53.250;10.406;2023-03-04T09:43:18;9.70;;;3.23;;
2858;SDS011;1437;53.250;10.406;2023-03-04T09:45:50;17.50;;;3.60;;
2858;SDS011;1437;53.250;10.406;2023-03-04T09:48:19;7.43;;;3.70;;
2858;SDS011;1437;53.250;10.406;2023-03-04T09:50:56;13.20;;;3.20;;
2858;SDS011;1437;53.250;10.406;2023-03-04T09:53:33;10.03;;;3.73;;
2858;SDS011;1437;53.250;10.406;2023-03-04T09:56:05;18.40;;;2.50;;
2858;SDS011;1437;53.250;10.406;2023-03-04T09:58:45;10.20;;;2.50;;
2858;SDS011;1437;53.250;10.406;2023-03-04T10:01:27;12.47;;;3.50;;
2858;SDS011;1437;53.250;10.406;2023-03-04T10:04:05;7.40;;;1.93;;
2858;SDS011;1437;53.250;10.406;2023-03-04T10:06:42;16.87;;;4.53;;
2858;SDS011;1437;53.250;10.406;2023-03-04T10:12:14;7.33;;;2.37;;
2858;SDS011;1437;53.250;10.406;2023-03-04T10:15:13;6.37;;;1.40;;
2858;SDS011;1437;53.250;10.406;2023-03-04T10:17:51;12.23;;;2.83;;
2858;SDS011;1437;53.250;10.406;2023-03-04T10:20:32;8.80;;;2.17;;
2858;SDS011;1437;53.250;10.406;2023-03-04T10:23:08;9.30;;;2.83;;
2858;SDS011;1437;53.250;10.406;2023-03-04T10:25:42;12.40;;;2.27;;
2858;SDS011;1437;53.250;10.406;2023-03-04T10:28:26;25.10;;;3.13;;
2858;SDS011;1437;53.250;10.406;2023-03-04T10:31:11;9.23;;;2.30;;
2858;SDS011;1437;53.250;10.406;2023-03-04T10:33:53;10.70;;;2.20;;
2858;SDS011;1437;53.250;10.406;2023-03-04T10:36:35;18.37;;;2.77;;
2858;SDS011;1437;53.250;10.406;2023-03-04T10:39:08;15.93;;;3.30;;
2858;SDS011;1437;53.250;10.406;2023-03-04T10:41:42;8.77;;;2.47;;
2858;SDS011;1437;53.250;10.406;2023-03-04T10:44:16;10.03;;;2.87;;
2858;SDS011;1437;53.250;10.406;2023-03-04T10:46:56;13.33;;;3.70;;
2858;SDS011;1437;53.250;10.406;2023-03-04T10:52:45;11.57;;;3.50;;
2858;SDS011;1437;53.250;10.406;2023-03-04T10:55:22;12.57;;;3.03;;
2858;SDS011;1437;53.250;10.406;2023-03-04T10:58:03;18.90;;;3.60;;
2858;SDS011;1437;53.250;10.406;2023-03-04T11:00:36;13.27;;;3.50;;
2858;SDS011;1437;53.250;10.406;2023-03-04T11:03:19;8.70;;;2.43;;
2858;SDS011;1437;53.250;10.406;2023-03-04T11:05:50;7.80;;;1.93;;
2858;SDS011;1437;53.250;10.406;2023-03-04T11:08:31;9.33;;;1.90;;
2858;SDS011;1437;53.250;10.406;2023-03-04T11:11:24;11.87;;;2.37;;
2858;SDS011;1437;53.250;10.406;2023-03-04T11:14:08;7.57;;;4.03;;
2858;SDS011;1437;53.250;10.406;2023-03-04T11:20:16;11.87;;;2.83;;
2858;SDS011;1437;53.250;10.406;2023-03-04T11:23:03;10.20;;;2.63;;
2858;SDS011;1437;53.250;10.406;2023-03-04T11:25:48;10.10;;;3.27;;
2858;SDS011;1437;53.250;10.406;2023-03-04T11:28:23;11.60;;;3.00;;
2858;SDS011;1437;53.250;10.406;2023-03-04T11:31:14;15.40;;;2.47;;
2858;SDS011;1437;53.250;10.406;2023-03-04T11:33:46;14.90;;;4.67;;
2858;SDS011;1437;53.250;10.406;2023-03-04T11:36:34;15.13;;;3.10;;
2858;SDS011;1437;53.250;10.406;2023-03-04T11:39:19;19.60;;;4.13;;
2858;SDS011;1437;53.250;10.406;2023-03-04T11:47:46;17.87;;;2.77;;
2858;SDS011;1437;53.250;10.406;2023-03-04T11:50:34;20.70;;;3.63;;
2858;SDS011;1437;53.250;10.406;2023-03-04T11:53:18;9.27;;;3.07;;
2858;SDS011;1437;53.250;10.406;2023-03-04T11:55:55;13.93;;;2.90;;
2858;SDS011;1437;53.250;10.406;2023-03-04T12:01:25;12.63;;;2.43;;
2858;SDS011;1437;53.250;10.406;2023-03-04T12:04:09;16.17;;;2.90;;
2858;SDS011;1437;53.250;10.406;2023-03-04T12:06:47;12.53;;;3.10;;
2858;SDS011;1437;53.250;10.406;2023-03-04T12:09:29;14.57;;;3.73;;
2858;SDS011;1437;53.250;10.406;2023-03-04T12:12:05;23.23;;;4.50;;
2858;SDS011;1437;53.250;10.406;2023-03-04T12:14:40;14.27;;;3.07;;
2858;SDS011;1437;53.250;10.406;2023-03-04T12:17:15;11.13;;;3.27;;
2858;SDS011;1437;53.250;10.406;2023-03-04T12:20:06;7.80;;;2.47;;
2858;SDS011;1437;53.250;10.406;2023-03-04T12:22:41;8.47;;;3.23;;
2858;SDS011;1437;53.250;10.406;2023-03-04T12:28:27;14.83;;;3.50;;
2858;SDS011;1437;53.250;10.406;2023-03-04T12:31:06;17.60;;;3.70;;
2858;SDS011;1437;53.250;10.406;2023-03-04T12:33:41;10.33;;;3.20;;
2858;SDS011;1437;53.250;10.406;2023-03-04T12:36:16;7.10;;;2.10;;
2858;SDS011;1437;53.250;10.406;2023-03-04T12:38:59;15.27;;;4.50;;
2858;SDS011;1437;53.250;10.406;2023-03-04T12:41:41;7.23;;;3.23;;
2858;SDS011;1437;53.250;10.406;2023-03-04T12:44:17;9.37;;;2.70;;
2858;SDS011;1437;53.250;10.406;2023-03-04T12:46:56;11.37;;;3.10;;
2858;SDS011;1437;53.250;10.406;2023-03-04T12:49:49;7.63;;;3.27;;
2858;SDS011;1437;53.250;10.406;2023-03-04T12:55:29;16.87;;;3.50;;
2858;SDS011;1437;53.250;10.406;2023-03-04T12:58:29;7.07;;;2.80;;
2858;SDS011;1437;53.250;10.406;2023-03-04T13:01:13;7.80;;;2.80;;
2858;SDS011;1437;53.250;10.406;2023-03-04T13:03:55;20.00;;;3.23;;
2858;SDS011;1437;53.250;10.406;2023-03-04T13:06:29;9.73;;;3.43;;
2858;SDS011;1437;53.250;10.406;2023-03-04T13:09:00;13.73;;;3.20;;
2858;SDS011;1437;53.250;10.406;2023-03-04T13:11:49;18.73;;;4.00;;
2858;SDS011;1437;53.250;10.406;2023-03-04T13:14:25;8.70;;;2.20;;
2858;SDS011;1437;53.250;10.406;2023-03-04T13:16:57;9.97;;;2.93;;
2858;SDS011;1437;53.250;10.406;2023-03-04T13:19:44;8.30;;;1.90;;
2858;SDS011;1437;53.250;10.406;2023-03-04T13:25:25;16.40;;;3.43;;
2858;SDS011;1437;53.250;10.406;2023-03-04T13:34:00;12.67;;;2.53;;
2858;SDS011;1437;53.250;10.406;2023-03-04T13:39:35;8.90;;;2.33;;
2858;SDS011;1437;53.250;10.406;2023-03-04T13:47:46;6.97;;;2.40;;
2858;SDS011;1437;53.250;10.406;2023-03-04T13:50:52;8.93;;;3.03;;
2858;SDS011;1437;53.250;10.406;2023-03-04T13:56:28;9.83;;;2.40;;
2858;SDS011;1437;53.250;10.406;2023-03-04T13:59:33;12.27;;;2.77;;
2858;SDS011;1437;53.250;10.406;2023-03-04T14:02:11;10.33;;;2.83;;
2858;SDS011;1437;53.250;10.406;2023-03-04T14:04:44;6.10;;;1.80;;
2858;SDS011;1437;53.250;10.406;2023-03-04T14:07:18;4.20;;;1.60;;
2858;SDS011;1437;53.250;10.406;2023-03-04T14:09:53;8.40;;;1.83;;
2858;SDS011;1437;53.250;10.406;2023-03-04T14:12:30;12.53;;;2.40;;
2858;SDS011;1437;53.250;10.406;2023-03-04T14:15:18;4.60;;;1.97;;
2858;SDS011;1437;53.250;10.406;2023-03-04T14:21:01;7.57;;;3.20;;
2858;SDS011;1437;53.250;10.406;2023-03-04T14:23:40;9.73;;;2.27;;
2858;SDS011;1437;53.250;10.406;2023-03-04T14:26:17;9.73;;;1.90;;
2858;SDS011;1437;53.250;10.406;2023-03-04T14:28:48;10.73;;;3.40;;
2858;SDS011;1437;53.250;10.406;2023-03-04T14:31:40;12.17;;;2.97;;
2858;SDS011;1437;53.250;10.406;2023-03-04T14:34:12;10.87;;;2.83;;
2858;SDS011;1437;53.250;10.406;2023-03-04T14:42:55;3.90;;;1.60;;
2858;SDS011;1437;53.250;10.406;2023-03-04T14:45:50;10.07;;;2.97;;
2858;SDS011;1437;53.250;10.406;2023-03-04T14:48:28;18.50;;;2.90;;
2858;SDS011;1437;53.250;10.406;2023-03-04T14:51:04;15.60;;;2.67;;
2858;SDS011;1437;53.250;10.406;2023-03-04T14:53:54;9.70;;;3.07;;
2858;SDS011;1437;53.250;10.406;2023-03-04T14:57:32;21.43;;;1.90;;
2858;SDS011;1437;53.250;10.406;2023-03-04T15:00:32;10.20;;;3.97;;
2858;SDS011;1437;53.250;10.406;2023-03-04T15:03:25;13.23;;;2.03;;
2858;SDS011;1437;53.250;10.406;2023-03-04T15:06:16;10.13;;;2.70;;
2858;SDS011;1437;53.250;10.406;2023-03-04T15:09:00;9.83;;;1.93;;
2858;SDS011;1437;53.250;10.406;2023-03-04T15:11:54;12.63;;;3.07;;
2858;SDS011;1437;53.250;10.406;2023-03-04T15:14:43;5.47;;;2.30;;
2858;SDS011;1437;53.250;10.406;2023-03-04T15:25:57;6.23;;;2.23;;
2858;SDS011;1437;53.250;10.406;2023-03-04T15:28:32;12.53;;;2.40;;
2858;SDS011;1437;53.250;10.406;2023-03-04T15:31:23;6.73;;;2.17;;
2858;SDS011;1437;53.250;10.406;2023-03-04T15:33:56;6.27;;;1.60;;
2858;SDS011;1437;53.250;10.406;2023-03-04T15:36:25;5.13;;;1.80;;
2858;SDS011;1437;53.250;10.406;2023-03-04T15:38:57;10.77;;;3.43;;
2858;SDS011;1437;53.250;10.406;2023-03-04T15:44:32;15.20;;;2.27;;
2858;SDS011;1437;53.250;10.406;2023-03-04T15:47:15;11.90;;;2.77;;
2858;SDS011;1437;53.250;10.406;2023-03-04T15:50:06;11.23;;;2.57;;
2858;SDS011;1437;53.250;10.406;2023-03-04T15:52:55;16.53;;;2.00;;
2858;SDS011;1437;53.250;10.406;2023-03-04T15:55:26;9.17;;;1.63;;
2858;SDS011;1437;53.250;10.406;2023-03-04T15:57:58;4.70;;;1.27;;
2858;SDS011;1437;53.250;10.406;2023-03-04T16:00:33;6.00;;;2.13;;
2858;SDS011;1437;53.250;10.406;2023-03-04T16:03:08;14.83;;;2.70;;
2858;SDS011;1437;53.250;10.406;2023-03-04T16:05:51;7.30;;;1.90;;
2858;SDS011;1437;53.250;10.406;2023-03-04T16:08:36;7.80;;;2.70;;
2858;SDS011;1437;53.250;10.406;2023-03-04T16:11:21;9.47;;;2.10;;
2858;SDS011;1437;53.250;10.406;2023-03-04T16:14:00;14.97;;;2.20;;
2858;SDS011;1437;53.250;10.406;2023-03-04T16:16:33;3.43;;;1.30;;
2858;SDS011;1437;53.250;10.406;2023-03-04T16:19:02;6.50;;;2.07;;
2858;SDS011;1437;53.250;10.406;2023-03-04T16:21:30;4.77;;;2.10;;
2858;SDS011;1437;53.250;10.406;2023-03-04T16:24:28;14.13;;;2.17;;
2858;SDS011;1437;53.250;10.406;2023-03-04T16:27:18;7.53;;;2.47;;
2858;SDS011;1437;53.250;10.406;2023-03-04T16:29:59;7.27;;;2.10;;
2858;SDS011;1437;53.250;10.406;2023-03-04T16:32:28;14.00;;;1.70;;
2858;SDS011;1437;53.250;10.406;2023-03-04T16:35:00;6.90;;;1.73;;
2858;SDS011;1437;53.250;10.406;2023-03-04T16:37:29;10.47;;;1.80;;
2858;SDS011;1437;53.250;10.406;2023-03-04T16:40:00;6.20;;;2.37;;
2858;SDS011;1437;53.250;10.406;2023-03-04T16:42:28;8.40;;;2.47;;